createdAt,value
2022-12-11T00:01:12.956Z,-1.87
2022-12-11T00:03:41.571Z,-1.73
2022-12-11T00:06:11.572Z,-1.80
2022-12-11T00:08:39.723Z,-1.64
2022-12-11T00:11:11.281Z,-1.86
2022-12-11T00:13:39.461Z,-1.83
2022-12-11T00:16:09.955Z,-1.81
2022-12-11T00:18:38.491Z,-1.88
2022-12-11T00:21:12.888Z,-1.80
2022-12-11T00:23:41.534Z,-1.64
2022-12-11T00:26:14.206Z,-1.84
2022-12-11T00:28:42.860Z,-2.03
2022-12-11T00:31:14.811Z,-2.02
2022-12-11T00:33:43.447Z,-1.71
2022-12-11T00:36:15.559Z,-1.88
2022-12-11T00:38:44.067Z,-1.87
2022-12-11T00:41:14.111Z,-1.65
2022-12-11T00:43:42.935Z,-1.59
2022-12-11T00:46:11.141Z,-1.57
2022-12-11T00:48:39.631Z,-1.82
2022-12-11T00:51:08.107Z,-1.86
2022-12-11T00:53:37.123Z,-1.91
2022-12-11T00:56:11.612Z,-1.95
2022-12-11T00:58:40.936Z,-1.96
2022-12-11T01:01:10.309Z,-1.73
2022-12-11T01:03:39.088Z,-1.80
2022-12-11T01:06:07.872Z,-1.23
2022-12-11T01:08:38.868Z,-1.36
2022-12-11T01:11:08.421Z,-1.69
2022-12-11T01:13:36.985Z,-1.82
2022-12-11T01:16:10.152Z,-1.73
2022-12-11T01:18:38.560Z,-1.86
2022-12-11T01:21:08.002Z,-1.89
2022-12-11T01:23:36.041Z,-1.85
2022-12-11T01:26:09.386Z,-1.88
2022-12-11T01:28:37.902Z,-1.91
2022-12-11T01:31:10.479Z,-1.64
2022-12-11T01:33:38.946Z,-1.78
2022-12-11T01:36:09.753Z,-1.94
2022-12-11T01:38:38.306Z,-1.84
2022-12-11T01:41:07.121Z,-1.93
2022-12-11T01:43:35.162Z,-1.91
2022-12-11T01:46:03.550Z,-1.71
2022-12-11T01:48:37.928Z,-1.31
2022-12-11T01:51:08.704Z,-1.20
2022-12-11T01:53:40.728Z,-1.69
2022-12-11T01:56:09.438Z,-1.91
2022-12-11T01:58:43.141Z,-1.80
2022-12-11T02:01:15.730Z,-1.81
2022-12-11T02:03:45.263Z,-1.79
2022-12-11T02:06:32.113Z,-1.88
2022-12-11T02:09:00.690Z,-1.92
2022-12-11T02:11:36.556Z,-1.76
2022-12-11T02:14:10.464Z,-2.05
2022-12-11T02:16:46.905Z,-1.88
2022-12-11T02:19:29.204Z,-1.99
2022-12-11T02:21:58.013Z,-1.57
2022-12-11T02:24:48.700Z,-1.57
2022-12-11T02:27:28.493Z,-1.36
2022-12-11T02:30:03.550Z,-1.50
2022-12-11T02:32:39.382Z,-1.76
2022-12-11T02:35:14.319Z,-2.04
2022-12-11T02:37:46.026Z,-1.99
2022-12-11T02:40:18.225Z,-1.93
2022-12-11T02:42:49.119Z,-1.65
2022-12-11T02:45:20.274Z,-1.47
2022-12-11T02:47:50.446Z,-1.84
2022-12-11T02:50:23.380Z,-1.88
2022-12-11T02:52:55.697Z,-1.97
2022-12-11T02:55:27.348Z,-1.54
2022-12-11T02:58:03.623Z,-1.67
2022-12-11T03:00:33.336Z,-2.30
2022-12-11T03:03:01.447Z,-2.34
2022-12-11T03:05:30.618Z,-2.38
2022-12-11T03:07:58.712Z,-2.36
2022-12-11T03:10:26.859Z,-2.08
2022-12-11T03:12:59.397Z,-2.13
2022-12-11T03:15:34.992Z,-2.06
2022-12-11T03:18:10.026Z,-2.20
2022-12-11T03:20:42.782Z,-1.76
2022-12-11T03:23:22.194Z,-1.69
2022-12-11T03:25:55.821Z,-1.49
2022-12-11T03:28:30.656Z,-1.76
2022-12-11T03:31:06.743Z,-1.63
2022-12-11T03:33:38.596Z,-2.15
2022-12-11T03:36:10.846Z,-1.65
2022-12-11T03:38:46.816Z,-1.91
2022-12-11T03:41:17.729Z,-2.02
2022-12-11T03:43:47.037Z,-2.12
2022-12-11T03:46:18.157Z,-2.40
2022-12-11T03:48:48.076Z,-2.25
2022-12-11T03:51:18.202Z,-2.15
2022-12-11T03:53:47.072Z,-1.99
2022-12-11T03:56:16.922Z,-1.71
2022-12-11T03:58:44.868Z,-1.65
2022-12-11T04:01:13.586Z,-2.00
2022-12-11T04:03:42.903Z,-1.69
2022-12-11T04:06:10.867Z,-1.44
2022-12-11T04:08:38.809Z,-1.26
2022-12-11T04:11:29.614Z,-1.48
2022-12-11T04:14:11.446Z,-1.57
2022-12-11T04:16:39.600Z,-1.89
2022-12-11T04:19:27.956Z,-1.60
2022-12-11T04:22:13.088Z,-1.47
2022-12-11T04:24:41.094Z,-1.60
2022-12-11T04:27:09.332Z,-1.63
2022-12-11T04:29:37.217Z,-1.69
2022-12-11T04:32:05.375Z,-1.75
2022-12-11T04:34:34.696Z,-1.99
2022-12-11T04:37:02.708Z,-2.01
2022-12-11T04:39:30.660Z,-2.15
2022-12-11T04:41:58.532Z,-1.86
2022-12-11T04:44:26.537Z,-1.84
2022-12-11T04:46:54.506Z,-2.04
2022-12-11T04:49:22.495Z,-1.86
2022-12-11T04:51:51.950Z,-1.76
2022-12-11T04:54:19.869Z,-2.19
2022-12-11T04:56:47.952Z,-2.02
2022-12-11T04:59:15.878Z,-1.92
2022-12-11T05:01:43.807Z,-1.83
2022-12-11T05:04:12.056Z,-1.99
2022-12-11T05:06:40.106Z,-1.89
2022-12-11T05:09:12.102Z,-1.94
2022-12-11T05:11:40.109Z,-2.03
2022-12-11T05:14:08.120Z,-1.81
2022-12-11T05:16:36.132Z,-1.61
2022-12-11T05:19:04.034Z,-2.24
2022-12-11T05:21:35.162Z,-2.35
2022-12-11T05:24:03.383Z,-2.01
2022-12-11T05:26:32.772Z,-2.22
2022-12-11T05:29:00.806Z,-2.09
2022-12-11T05:31:29.250Z,-2.22
2022-12-11T05:33:57.225Z,-2.28
2022-12-11T05:36:27.503Z,-2.14
2022-12-11T05:38:56.162Z,-2.48
2022-12-11T05:41:25.864Z,-2.16
2022-12-11T05:43:55.811Z,-2.09
2022-12-11T05:46:25.973Z,-2.31
2022-12-11T05:48:56.836Z,-2.26
2022-12-11T05:51:25.485Z,-2.37
2022-12-11T05:53:54.200Z,-2.10
2022-12-11T05:56:24.363Z,-2.23
2022-12-11T05:58:52.343Z,-2.19
2022-12-11T06:01:24.306Z,-2.47
2022-12-11T06:03:52.270Z,-2.33
2022-12-11T06:06:20.375Z,-2.10
2022-12-11T06:08:51.106Z,-2.46
2022-12-11T06:11:23.716Z,-2.59
2022-12-11T06:13:53.199Z,-2.63
2022-12-11T06:16:23.115Z,-2.35
2022-12-11T06:18:51.296Z,-2.24
2022-12-11T06:21:21.169Z,-2.75
2022-12-11T06:23:51.697Z,-2.69
2022-12-11T06:26:20.874Z,-2.94
2022-12-11T06:28:49.315Z,-2.89
2022-12-11T06:31:17.765Z,-2.54
2022-12-11T06:33:47.669Z,-2.46
2022-12-11T06:36:18.513Z,-2.35
2022-12-11T06:38:46.407Z,-2.36
2022-12-11T06:41:15.045Z,-2.91
2022-12-11T06:43:43.940Z,-2.81
2022-12-11T06:46:13.983Z,-2.53
2022-12-11T06:48:43.194Z,-2.70
2022-12-11T06:51:14.521Z,-2.65
2022-12-11T06:53:42.772Z,-2.68
2022-12-11T06:56:13.527Z,-2.91
2022-12-11T06:58:43.276Z,-2.98
2022-12-11T07:01:16.094Z,-2.83
2022-12-11T07:03:44.131Z,-2.75
2022-12-11T07:06:14.923Z,-2.76
2022-12-11T07:08:43.471Z,-2.69
2022-12-11T07:11:14.179Z,-2.74
2022-12-11T07:13:43.052Z,-2.89
2022-12-11T07:16:12.960Z,-2.73
2022-12-11T07:18:42.797Z,-2.64
2022-12-11T07:21:13.977Z,-2.70
2022-12-11T07:23:42.516Z,-2.73
2022-12-11T07:26:14.893Z,-2.88
2022-12-11T07:28:43.506Z,-2.91
2022-12-11T07:31:13.897Z,-3.00
2022-12-11T07:33:42.750Z,-2.90
2022-12-11T07:36:13.902Z,-3.07
2022-12-11T07:38:42.593Z,-2.95
2022-12-11T07:41:13.416Z,-2.44
2022-12-11T07:43:42.361Z,-2.77
2022-12-11T07:46:12.942Z,-2.83
2022-12-11T07:48:42.970Z,-2.85
2022-12-11T07:51:15.055Z,-2.99
2022-12-11T07:53:45.832Z,-3.08
2022-12-11T07:56:14.204Z,-2.96
2022-12-11T07:58:42.192Z,-3.11
2022-12-11T08:01:13.316Z,-3.01
2022-12-11T08:03:42.085Z,-3.10
2022-12-11T08:06:11.039Z,-3.02
2022-12-11T08:08:41.547Z,-2.97
2022-12-11T08:11:12.109Z,-2.66
2022-12-11T08:13:41.145Z,-2.96
2022-12-11T08:16:13.096Z,-3.11
2022-12-11T08:18:42.737Z,-3.00
2022-12-11T08:21:13.128Z,-3.20
2022-12-11T08:23:42.428Z,-3.06
2022-12-11T08:26:13.610Z,-3.06
2022-12-11T08:28:41.664Z,-3.26
2022-12-11T08:31:11.489Z,-3.25
2022-12-11T08:33:41.436Z,-2.98
2022-12-11T08:36:11.697Z,-3.26
2022-12-11T08:38:40.266Z,-3.09
2022-12-11T08:41:13.919Z,-2.99
2022-12-11T08:43:42.333Z,-3.19
2022-12-11T08:46:11.223Z,-3.06
2022-12-11T08:48:40.806Z,-2.92
2022-12-11T08:51:12.037Z,-3.03
2022-12-11T08:53:40.424Z,-2.92
2022-12-11T08:56:10.827Z,-2.99
2022-12-11T08:58:40.320Z,-2.79
2022-12-11T09:01:10.603Z,-2.92
2022-12-11T09:03:39.371Z,-2.74
2022-12-11T09:06:08.624Z,-3.00
2022-12-11T09:08:37.213Z,-2.80
2022-12-11T09:11:06.664Z,-2.78
2022-12-11T09:13:35.008Z,-2.62
2022-12-11T09:16:07.693Z,-2.88
2022-12-11T09:18:35.742Z,-2.92
2022-12-11T09:21:05.878Z,-2.74
2022-12-11T09:23:34.190Z,-2.91
2022-12-11T09:26:05.293Z,-2.91
2022-12-11T09:28:33.685Z,-2.79
2022-12-11T09:31:01.895Z,-2.84
2022-12-11T09:33:31.305Z,-2.92
2022-12-11T09:35:59.626Z,-2.71
2022-12-11T09:38:28.197Z,-3.03
2022-12-11T09:41:03.564Z,-3.03
2022-12-11T09:43:39.138Z,-2.91
2022-12-11T09:46:12.183Z,-3.03
2022-12-11T09:48:44.064Z,-2.83
2022-12-11T09:51:19.792Z,-2.95
2022-12-11T09:53:50.144Z,-2.44
2022-12-11T09:56:26.977Z,-2.69
2022-12-11T09:59:06.373Z,-3.02
2022-12-11T10:01:42.854Z,-2.71
2022-12-11T10:04:37.348Z,-2.84
2022-12-11T10:07:15.388Z,-2.82
2022-12-11T10:09:52.602Z,-2.80
2022-12-11T10:12:34.655Z,-2.90
2022-12-11T10:15:20.678Z,-2.78
2022-12-11T10:17:49.324Z,-2.86
2022-12-11T10:20:24.732Z,-2.70
2022-12-11T10:22:57.854Z,-2.59
2022-12-11T10:25:29.283Z,-2.84
2022-12-11T10:27:57.930Z,-2.66
2022-12-11T10:30:30.462Z,-2.36
2022-12-11T10:33:12.792Z,-2.77
2022-12-11T10:35:48.865Z,-2.73
2022-12-11T10:38:21.200Z,-2.78
2022-12-11T10:40:52.420Z,-2.73
2022-12-11T10:43:20.863Z,-2.64
2022-12-11T10:45:53.579Z,-2.40
2022-12-11T10:48:23.097Z,-2.60
2022-12-11T10:51:01.773Z,-2.79
2022-12-11T10:53:30.512Z,-2.52
2022-12-11T10:55:59.157Z,-2.59
2022-12-11T10:58:29.588Z,-2.52
2022-12-11T11:01:07.956Z,-2.43
2022-12-11T11:03:43.581Z,-2.31
2022-12-11T11:06:18.993Z,-2.35
2022-12-11T11:08:50.080Z,-2.23
2022-12-11T11:11:25.566Z,-2.31
2022-12-11T11:14:04.911Z,-2.55
2022-12-11T11:16:36.614Z,-2.06
2022-12-11T11:19:06.541Z,-2.58
2022-12-11T11:21:37.048Z,-2.55
2022-12-11T11:24:06.185Z,-2.56
2022-12-11T11:27:11.150Z,-2.52
2022-12-11T11:29:30.448Z,-2.41
2022-12-11T11:32:02.158Z,-2.67
2022-12-11T11:34:30.961Z,-2.32
2022-12-11T11:37:05.567Z,-2.29
2022-12-11T11:39:37.787Z,-2.18
2022-12-11T11:42:14.658Z,-2.32
2022-12-11T11:44:48.945Z,-2.54
2022-12-11T11:47:24.269Z,-2.19
2022-12-11T11:50:01.361Z,-2.79
2022-12-11T11:52:36.337Z,-2.59
2022-12-11T11:55:10.461Z,-2.65
2022-12-11T11:57:44.643Z,-2.71
2022-12-11T12:00:20.687Z,-2.64
2022-12-11T12:02:51.323Z,-2.19
2022-12-11T12:05:29.548Z,-2.22
2022-12-11T12:08:14.736Z,-2.06
2022-12-11T12:11:02.162Z,-2.39
2022-12-11T12:13:55.352Z,-2.44
2022-12-11T12:19:38.284Z,-2.38
2022-12-11T12:22:21.665Z,-2.11
2022-12-11T12:25:01.506Z,-1.78
2022-12-11T12:27:53.534Z,-1.82
2022-12-11T12:30:24.705Z,-1.86
2022-12-11T12:33:10.208Z,-1.93
2022-12-11T12:35:41.156Z,-1.80
2022-12-11T12:38:18.364Z,-1.91
2022-12-11T12:40:58.569Z,-2.09
2022-12-11T12:43:48.312Z,-2.06
2022-12-11T12:46:26.204Z,-1.60
2022-12-11T12:48:58.323Z,-1.59
2022-12-11T12:51:28.005Z,-1.58
2022-12-11T12:53:59.630Z,-1.54
2022-12-11T12:56:31.358Z,-1.62
2022-12-11T12:58:59.767Z,-1.89
2022-12-11T13:01:29.568Z,-1.66
2022-12-11T13:04:03.089Z,-1.67
2022-12-11T13:06:39.050Z,-1.53
2022-12-11T13:09:17.226Z,-1.84
2022-12-11T13:11:50.167Z,-1.94
2022-12-11T13:14:36.021Z,-1.81
2022-12-11T13:17:25.480Z,-1.52
2022-12-11T13:20:13.983Z,-1.89
2022-12-11T13:22:56.912Z,-1.65
2022-12-11T13:25:29.161Z,-1.69
2022-12-11T13:28:08.419Z,-1.83
2022-12-11T13:30:36.565Z,-1.49
2022-12-11T13:33:07.091Z,-1.22
2022-12-11T13:35:37.369Z,-1.27
2022-12-11T13:38:08.316Z,-1.70
2022-12-11T13:40:40.824Z,-1.56
2022-12-11T13:43:19.013Z,-1.55
2022-12-11T13:45:50.920Z,-1.87
2022-12-11T13:48:27.952Z,-1.90
2022-12-11T13:50:59.188Z,-1.38
2022-12-11T13:53:27.506Z,-1.50
2022-12-11T13:55:59.978Z,-1.49
2022-12-11T13:58:31.042Z,-1.63
2022-12-11T14:01:11.142Z,-1.60
2022-12-11T14:03:41.892Z,-1.37
2022-12-11T14:06:18.303Z,-1.19
2022-12-11T14:08:54.497Z,-1.47
2022-12-11T14:11:24.853Z,-1.33
2022-12-11T14:13:56.128Z,-1.85
2022-12-11T14:16:27.172Z,-1.55
2022-12-11T14:19:00.473Z,-1.49
2022-12-11T14:21:28.624Z,-1.69
2022-12-11T14:23:58.586Z,-1.84
2022-12-11T14:26:28.152Z,-1.54
2022-12-11T14:28:58.104Z,-1.48
2022-12-11T14:31:31.012Z,-1.39
2022-12-11T14:34:04.274Z,-1.30
2022-12-11T14:36:34.462Z,-1.37
2022-12-11T14:39:06.016Z,-1.37
2022-12-11T14:41:44.066Z,-1.29
2022-12-11T14:44:17.728Z,-1.33
2022-12-11T14:46:49.456Z,-1.35
2022-12-11T14:49:24.040Z,-1.32
2022-12-11T14:51:56.026Z,-1.41
2022-12-11T14:54:30.910Z,-1.37
2022-12-11T14:57:02.330Z,-1.42
2022-12-11T14:59:36.212Z,-1.30
2022-12-11T15:02:22.403Z,-1.31
2022-12-11T15:05:06.854Z,-1.31
2022-12-11T15:07:35.267Z,-1.45
2022-12-11T15:10:04.176Z,-1.38
2022-12-11T15:12:32.813Z,-1.33
2022-12-11T15:15:08.082Z,-1.39
2022-12-11T15:17:37.488Z,-1.38
2022-12-11T15:20:10.181Z,-1.29
2022-12-11T15:22:39.970Z,-1.34
2022-12-11T15:25:18.900Z,-1.42
2022-12-11T15:27:50.835Z,-1.41
2022-12-11T15:30:36.269Z,-1.38
2022-12-11T15:33:21.835Z,-1.42
2022-12-11T15:35:56.635Z,-1.41
2022-12-11T15:38:39.514Z,-1.48
2022-12-11T15:41:12.242Z,-1.74
2022-12-11T15:43:40.409Z,-1.53
2022-12-11T15:46:09.884Z,-1.49
2022-12-11T15:48:37.987Z,-1.43
2022-12-11T15:51:06.807Z,-1.45
2022-12-11T15:53:34.882Z,-1.47
2022-12-11T15:56:03.088Z,-1.43
2022-12-11T15:58:31.417Z,-1.76
2022-12-11T16:00:59.635Z,-1.89
2022-12-11T16:03:34.375Z,-1.48
2022-12-11T16:06:02.112Z,-1.69
2022-12-11T16:08:32.407Z,-1.59
2022-12-11T16:11:00.460Z,-1.78
2022-12-11T16:13:28.424Z,-1.60
2022-12-11T16:15:59.037Z,-1.48
2022-12-11T16:18:27.071Z,-1.50
2022-12-11T16:20:56.554Z,-1.51
2022-12-11T16:23:24.760Z,-1.49
2022-12-11T16:25:52.997Z,-1.48
2022-12-11T16:28:21.763Z,-1.52
2022-12-11T16:30:50.297Z,-1.91
2022-12-11T16:33:19.987Z,-1.91
2022-12-11T16:35:48.054Z,-2.01
2022-12-11T16:38:17.908Z,-1.99
2022-12-11T16:40:46.017Z,-1.91
2022-12-11T16:43:14.085Z,-1.65
2022-12-11T16:45:43.920Z,-1.46
2022-12-11T16:48:11.998Z,-1.49
2022-12-11T16:50:41.468Z,-1.53
2022-12-11T16:53:09.595Z,-1.57
2022-12-11T16:55:40.695Z,-1.44
2022-12-11T16:58:09.480Z,-1.70
2022-12-11T17:00:37.553Z,-1.48
2022-12-11T17:03:06.836Z,-1.39
2022-12-11T17:05:35.154Z,-1.49
2022-12-11T17:08:03.663Z,-1.44
2022-12-11T17:10:31.840Z,-1.55
2022-12-11T17:13:01.336Z,-1.49
2022-12-11T17:15:29.539Z,-1.59
2022-12-11T17:17:57.642Z,-1.63
2022-12-11T17:20:25.866Z,-1.61
2022-12-11T17:22:53.905Z,-1.60
2022-12-11T17:25:24.931Z,-1.63
2022-12-11T17:28:05.520Z,-1.66
2022-12-11T17:30:33.478Z,-1.60
2022-12-11T17:33:02.978Z,-1.74
2022-12-11T17:35:32.863Z,-1.59
2022-12-11T17:38:01.309Z,-1.44
2022-12-11T17:40:30.763Z,-1.67
2022-12-11T17:42:58.984Z,-1.82
2022-12-11T17:45:28.601Z,-1.73
2022-12-11T17:47:57.896Z,-1.82
2022-12-11T17:50:26.032Z,-1.80
2022-12-11T17:52:55.407Z,-1.52
2022-12-11T17:55:36.590Z,-1.55
2022-12-11T17:58:05.472Z,-1.66
2022-12-11T18:00:35.043Z,-1.55
2022-12-11T18:03:03.246Z,-1.54
2022-12-11T18:05:31.271Z,-1.54
2022-12-11T18:08:04.235Z,-1.56
2022-12-11T18:10:43.955Z,-1.55
2022-12-11T18:13:13.937Z,-1.60
2022-12-11T18:15:44.231Z,-1.63
2022-12-11T18:18:12.447Z,-1.58
2022-12-11T18:20:40.870Z,-1.57
2022-12-11T18:23:08.967Z,-1.59
2022-12-11T18:25:40.974Z,-1.56
2022-12-11T18:28:09.107Z,-1.63
2022-12-11T18:30:38.869Z,-1.66
2022-12-11T18:33:08.187Z,-1.62
2022-12-11T18:35:36.553Z,-1.50
2022-12-11T18:38:04.713Z,-1.63
2022-12-11T18:40:34.360Z,-1.69
2022-12-11T18:43:02.328Z,-1.58
2022-12-11T18:45:31.356Z,-1.55
2022-12-11T18:47:59.428Z,-1.53
2022-12-11T18:50:30.701Z,-1.47
2022-12-11T18:53:00.738Z,-1.59
2022-12-11T18:55:28.829Z,-1.61
2022-12-11T18:57:56.825Z,-1.68
2022-12-11T19:00:25.120Z,-1.69
2022-12-11T19:02:55.426Z,-1.66
2022-12-11T19:05:23.499Z,-1.92
2022-12-11T19:07:54.627Z,-1.69
2022-12-11T19:10:24.810Z,-1.71
2022-12-11T19:12:55.103Z,-1.75
2022-12-11T19:15:24.120Z,-1.67
2022-12-11T19:17:52.634Z,-1.67
2022-12-11T19:23:11.456Z,-1.71
2022-12-11T19:25:43.753Z,-1.69
2022-12-11T19:28:12.120Z,-1.64
2022-12-11T19:30:43.626Z,-1.63
2022-12-11T19:33:14.167Z,-1.67
2022-12-11T19:35:42.522Z,-1.60
2022-12-11T19:38:13.764Z,-1.65
2022-12-11T19:40:42.908Z,-1.76
2022-12-11T19:43:10.990Z,-1.65
2022-12-11T19:45:39.492Z,-1.61
2022-12-11T19:48:07.663Z,-1.59
2022-12-11T19:50:36.528Z,-1.62
2022-12-11T19:53:05.105Z,-1.51
2022-12-11T19:55:34.592Z,-1.55
2022-12-11T19:58:02.658Z,-1.55
2022-12-11T20:00:30.797Z,-1.48
2022-12-11T20:02:58.938Z,-1.61
2022-12-11T20:05:27.012Z,-1.45
2022-12-11T20:07:55.124Z,-1.55
2022-12-11T20:10:23.212Z,-1.52
2022-12-11T20:12:56.503Z,-1.62
2022-12-11T20:15:25.169Z,-1.44
2022-12-11T20:17:53.933Z,-1.52
2022-12-11T20:20:25.960Z,-1.54
2022-12-11T20:22:54.414Z,-1.44
2022-12-11T20:25:22.584Z,-1.43
2022-12-11T20:27:58.567Z,-1.28
2022-12-11T20:30:26.768Z,-1.38
2022-12-11T20:32:54.840Z,-1.46
2022-12-11T20:35:22.842Z,-1.47
2022-12-11T20:37:50.885Z,-1.48
2022-12-11T20:40:19.910Z,-1.54
2022-12-11T20:42:47.986Z,-1.52
2022-12-11T20:45:18.270Z,-1.49
2022-12-11T20:47:46.554Z,-1.41
2022-12-11T20:50:14.832Z,-1.48
2022-12-11T20:52:43.150Z,-1.47
2022-12-11T20:55:12.449Z,-1.54
2022-12-11T20:57:45.035Z,-1.48
2022-12-11T21:00:14.717Z,-1.44
2022-12-11T21:02:45.261Z,-1.41
2022-12-11T21:05:14.412Z,-1.47
2022-12-11T21:07:46.764Z,-1.55
2022-12-11T21:10:16.595Z,-1.55
2022-12-11T21:12:45.629Z,-1.57
2022-12-11T21:15:17.342Z,-1.59
2022-12-11T21:17:47.972Z,-1.56
2022-12-11T21:20:17.146Z,-1.70
2022-12-11T21:22:54.100Z,-1.55
2022-12-11T21:25:25.815Z,-1.89
2022-12-11T21:27:54.619Z,-1.66
2022-12-11T21:30:23.056Z,-1.55
2022-12-11T21:32:53.206Z,-1.56
2022-12-11T21:35:21.664Z,-1.60
2022-12-11T21:38:13.421Z,-1.73
2022-12-11T21:40:42.227Z,-1.75
2022-12-11T21:43:10.516Z,-1.61
2022-12-11T21:46:00.483Z,-1.56
2022-12-11T21:48:27.977Z,-1.54
2022-12-11T21:50:56.113Z,-1.59
2022-12-11T21:53:24.072Z,-1.62
2022-12-11T21:55:53.641Z,-1.62
2022-12-11T21:58:21.729Z,-1.58
2022-12-11T22:00:49.964Z,-1.55
2022-12-11T22:03:18.347Z,-1.71
2022-12-11T22:05:47.806Z,-1.77
2022-12-11T22:08:15.911Z,-1.69
2022-12-11T22:10:45.799Z,-1.71
2022-12-11T22:13:13.946Z,-1.73
2022-12-11T22:15:42.415Z,-1.77
2022-12-11T22:18:10.580Z,-1.77
2022-12-11T22:20:38.906Z,-1.76
2022-12-11T22:23:09.290Z,-1.99
2022-12-11T22:25:38.114Z,-1.79
2022-12-11T22:28:06.884Z,-1.70
2022-12-11T22:30:34.892Z,-1.80
2022-12-11T22:33:02.915Z,-1.76
2022-12-11T22:35:30.862Z,-1.68
2022-12-11T22:37:58.848Z,-1.79
2022-12-11T22:40:30.117Z,-1.79
2022-12-11T22:42:58.518Z,-1.71
2022-12-11T22:45:26.711Z,-1.69
2022-12-11T22:47:54.716Z,-1.90
2022-12-11T22:50:23.627Z,-1.75
2022-12-11T22:52:51.693Z,-1.68
2022-12-11T22:55:19.815Z,-1.88
2022-12-11T22:57:49.208Z,-1.89
2022-12-11T23:00:17.934Z,-1.68
2022-12-11T23:02:46.300Z,-1.68
2022-12-11T23:05:14.775Z,-1.63
2022-12-11T23:07:44.016Z,-1.45
2022-12-11T23:10:12.277Z,-1.66
2022-12-11T23:12:40.376Z,-1.69
2022-12-11T23:15:11.382Z,-1.80
2022-12-11T23:17:39.575Z,-1.81
2022-12-11T23:20:08.727Z,-1.38
2022-12-11T23:22:36.741Z,-1.26
2022-12-11T23:25:05.489Z,-1.43
2022-12-11T23:27:33.491Z,-1.43
2022-12-11T23:30:01.535Z,-1.48
2022-12-11T23:32:30.965Z,-1.44
2022-12-11T23:34:59.053Z,-1.48
2022-12-11T23:37:27.938Z,-1.53
2022-12-11T23:39:55.925Z,-1.40
2022-12-11T23:42:24.198Z,-1.53
2022-12-11T23:44:52.175Z,-1.51
2022-12-11T23:47:20.167Z,-1.50
2022-12-11T23:49:49.590Z,-1.50
2022-12-11T23:52:17.583Z,-1.45
2022-12-11T23:54:46.402Z,-1.50
2022-12-11T23:57:15.659Z,-1.56
2022-12-11T23:59:43.611Z,-1.57
